XAA538 EGGW-LFPB
Flight info
| Callsign | XAA538 |
|---|---|
| Flight time | 0h 46m |
| Altitude | 30000 |
| Route | RODNI N27 ICTAM Q63 CPT DCT MID DCT XIDIL UM605 PETAX UZ296 VELOL |
| Aircraft | C680/M-SDFGHRWY/SB1 |
Departure
| Time | 2026-04-25 19:20 |
|---|---|
| Airport | London Luton Airport (EGGW) |
Arrival
| Time | 2026-04-25 20:06 |
|---|---|
| Airport | Paris-Le Bourget International Airport (LFPB) |
| Time | Latitude | Longitude | Altitude | Speed | Heading |
|---|---|---|---|---|---|
| 2026-04-25 19:02 | 51.87802 | -0.38041 | 517 ft | 0 kts | 135° |
| 2026-04-25 19:16 | 51.87791 | -0.38019 | 517 ft | 7 kts | 126° |
| 2026-04-25 19:16 | 51.87769 | -0.37918 | 517 ft | 6 kts | 94° |
| 2026-04-25 19:16 | 51.87762 | -0.37823 | 517 ft | 11 kts | 101° |
| 2026-04-25 19:16 | 51.87734 | -0.37687 | 515 ft | 13 kts | 115° |
| 2026-04-25 19:17 | 51.87691 | -0.37545 | 514 ft | 14 kts | 118° |
| 2026-04-25 19:17 | 51.87613 | -0.37448 | 517 ft | 14 kts | 146° |
| 2026-04-25 19:17 | 51.87577 | -0.37282 | 516 ft | 18 kts | 84° |
| 2026-04-25 19:17 | 51.87604 | -0.37112 | 516 ft | 11 kts | 76° |
| 2026-04-25 19:18 | 51.87611 | -0.37072 | 516 ft | 1 kts | 75° |
| 2026-04-25 19:18 | 51.87609 | -0.37032 | 516 ft | 6 kts | 122° |
| 2026-04-25 19:18 | 51.87573 | -0.36975 | 517 ft | 6 kts | 140° |
| 2026-04-25 19:18 | 51.87571 | -0.36972 | 518 ft | 0 kts | 141° |
| 2026-04-25 19:19 | 51.87569 | -0.36970 | 518 ft | 2 kts | 142° |
| 2026-04-25 19:19 | 51.87515 | -0.36936 | 517 ft | 12 kts | 175° |
| 2026-04-25 19:19 | 51.87486 | -0.36946 | 517 ft | 11 kts | 200° |
| 2026-04-25 19:20 | 51.87445 | -0.36934 | 517 ft | 0 kts | 72° |
| 2026-04-25 19:20 | 51.87527 | -0.36473 | 517 ft | 94 kts | 74° |
| 2026-04-25 19:20 | 51.87768 | -0.35099 | 875 ft | 147 kts | 73° |
| 2026-04-25 19:20 | 51.88076 | -0.33432 | 1971 ft | 160 kts | 73° |
| 2026-04-25 19:21 | 51.88410 | -0.31562 | 3097 ft | 186 kts | 73° |
| 2026-04-25 19:21 | 51.89213 | -0.26642 | 3982 ft | 254 kts | 82° |
| 2026-04-25 19:21 | 51.88916 | -0.23870 | 3984 ft | 257 kts | 112° |
| 2026-04-25 19:22 | 51.88330 | -0.22171 | 3979 ft | 266 kts | 125° |
| 2026-04-25 19:22 | 51.86875 | -0.20394 | 3961 ft | 266 kts | 158° |
| 2026-04-25 19:22 | 51.83444 | -0.21748 | 4347 ft | 271 kts | 226° |
| 2026-04-25 19:23 | 51.82599 | -0.24421 | 4542 ft | 268 kts | 259° |
| 2026-04-25 19:23 | 51.82501 | -0.30454 | 4986 ft | 270 kts | 268° |
| 2026-04-25 19:23 | 51.82544 | -0.33520 | 5938 ft | 268 kts | 272° |
| 2026-04-25 19:24 | 51.82507 | -0.36499 | 7681 ft | 268 kts | 266° |
| 2026-04-25 19:24 | 51.82124 | -0.39490 | 9123 ft | 276 kts | 253° |
| 2026-04-25 19:24 | 51.80660 | -0.45362 | 12034 ft | 287 kts | 250° |
| 2026-04-25 19:25 | 51.79333 | -0.51552 | 14738 ft | 297 kts | 252° |
| 2026-04-25 19:25 | 51.78632 | -0.54727 | 15925 ft | 305 kts | 251° |
| 2026-04-25 19:25 | 51.77862 | -0.58123 | 16200 ft | 342 kts | 251° |
| 2026-04-25 19:26 | 51.77015 | -0.61879 | 16203 ft | 363 kts | 251° |
| 2026-04-25 19:26 | 51.76087 | -0.65686 | 16193 ft | 369 kts | 244° |
| 2026-04-25 19:26 | 51.74401 | -0.68720 | 17269 ft | 359 kts | 217° |
| 2026-04-25 19:26 | 51.72142 | -0.70390 | 18588 ft | 363 kts | 198° |
| 2026-04-25 19:27 | 51.69688 | -0.70930 | 19392 ft | 347 kts | 185° |
| 2026-04-25 19:27 | 51.68106 | -0.70988 | 19937 ft | 342 kts | 182° |
| 2026-04-25 19:27 | 51.64909 | -0.70901 | 21220 ft | 347 kts | 181° |
| 2026-04-25 19:27 | 51.62474 | -0.70756 | 22068 ft | 354 kts | 179° |
| 2026-04-25 19:28 | 51.59999 | -0.70367 | 22926 ft | 361 kts | 175° |
| 2026-04-25 19:28 | 51.57488 | -0.69872 | 23730 ft | 367 kts | 176° |
| 2026-04-25 19:28 | 51.54932 | -0.69494 | 24424 ft | 371 kts | 178° |
| 2026-04-25 19:28 | 51.52343 | -0.69189 | 25119 ft | 375 kts | 179° |
| 2026-04-25 19:29 | 51.49731 | -0.68831 | 25785 ft | 379 kts | 178° |
| 2026-04-25 19:29 | 51.47132 | -0.68427 | 26428 ft | 383 kts | 178° |
| 2026-04-25 19:29 | 51.44433 | -0.68024 | 27077 ft | 386 kts | 178° |
| 2026-04-25 19:29 | 51.41742 | -0.67654 | 27699 ft | 390 kts | 178° |
| 2026-04-25 19:30 | 51.39028 | -0.67277 | 28194 ft | 397 kts | 178° |
| 2026-04-25 19:30 | 51.36246 | -0.66878 | 28202 ft | 415 kts | 178° |
| 2026-04-25 19:30 | 51.33311 | -0.66453 | 28200 ft | 431 kts | 178° |
| 2026-04-25 19:30 | 51.30276 | -0.66019 | 28206 ft | 445 kts | 178° |
| 2026-04-25 19:31 | 51.27140 | -0.65575 | 28211 ft | 458 kts | 178° |
| 2026-04-25 19:31 | 51.23943 | -0.65120 | 28214 ft | 464 kts | 178° |
| 2026-04-25 19:31 | 51.17482 | -0.64199 | 28213 ft | 467 kts | 178° |
| 2026-04-25 19:32 | 51.11032 | -0.63009 | 28203 ft | 469 kts | 170° |
| 2026-04-25 19:32 | 51.05899 | -0.59974 | 28200 ft | 473 kts | 154° |
| 2026-04-25 19:33 | 51.02283 | -0.56106 | 28203 ft | 475 kts | 141° |
| 2026-04-25 19:33 | 50.99927 | -0.52433 | 28203 ft | 476 kts | 132° |
| 2026-04-25 19:33 | 50.95607 | -0.44430 | 28205 ft | 478 kts | 131° |
| 2026-04-25 19:34 | 50.91252 | -0.36490 | 28204 ft | 476 kts | 131° |
| 2026-04-25 19:34 | 50.86919 | -0.28549 | 28204 ft | 478 kts | 131° |
| 2026-04-25 19:35 | 50.82565 | -0.20629 | 28202 ft | 476 kts | 131° |
| 2026-04-25 19:35 | 50.78230 | -0.12742 | 28203 ft | 475 kts | 131° |
| 2026-04-25 19:36 | 50.73918 | -0.04837 | 28206 ft | 475 kts | 131° |
| 2026-04-25 19:36 | 50.69636 | 0.03093 | 28224 ft | 474 kts | 130° |
| 2026-04-25 19:37 | 50.65381 | 0.11031 | 28226 ft | 474 kts | 130° |
| 2026-04-25 19:37 | 50.61152 | 0.18982 | 28221 ft | 473 kts | 130° |
| 2026-04-25 19:38 | 50.56919 | 0.27002 | 28221 ft | 473 kts | 130° |
| 2026-04-25 19:38 | 50.52742 | 0.34899 | 28223 ft | 472 kts | 130° |
| 2026-04-25 19:39 | 50.48448 | 0.42689 | 28219 ft | 471 kts | 135° |
| 2026-04-25 19:39 | 50.46035 | 0.46167 | 28081 ft | 473 kts | 140° |
| 2026-04-25 19:39 | 50.43545 | 0.49552 | 27826 ft | 472 kts | 140° |
| 2026-04-25 19:40 | 50.41174 | 0.53069 | 27542 ft | 468 kts | 134° |
| 2026-04-25 19:40 | 50.39030 | 0.56902 | 27296 ft | 467 kts | 130° |
| 2026-04-25 19:40 | 50.36988 | 0.60889 | 26721 ft | 469 kts | 129° |
| 2026-04-25 19:40 | 50.34809 | 0.64616 | 26239 ft | 458 kts | 140° |
| 2026-04-25 19:41 | 50.32367 | 0.67693 | 26231 ft | 447 kts | 143° |
| 2026-04-25 19:41 | 50.29917 | 0.70697 | 26231 ft | 447 kts | 143° |
| 2026-04-25 19:41 | 50.27489 | 0.73740 | 26231 ft | 448 kts | 142° |
| 2026-04-25 19:41 | 50.26674 | 0.74774 | 26230 ft | 448 kts | 142° |
| 2026-04-25 19:42 | 50.22701 | 0.79776 | 24954 ft | 432 kts | 142° |
| 2026-04-25 19:42 | 50.20291 | 0.82740 | 22412 ft | 458 kts | 143° |
| 2026-04-25 19:42 | 50.17811 | 0.85517 | 22147 ft | 418 kts | 148° |
| 2026-04-25 19:42 | 50.15358 | 0.87687 | 21387 ft | 397 kts | 153° |
| 2026-04-25 19:43 | 50.12963 | 0.89488 | 21205 ft | 367 kts | 156° |
| 2026-04-25 19:43 | 50.10705 | 0.91082 | 21073 ft | 347 kts | 156° |
| 2026-04-25 19:43 | 50.08568 | 0.92782 | 20825 ft | 346 kts | 152° |
| 2026-04-25 19:43 | 50.06433 | 0.94679 | 20577 ft | 361 kts | 151° |
| 2026-04-25 19:44 | 50.04195 | 0.96612 | 20330 ft | 374 kts | 154° |
| 2026-04-25 19:44 | 50.01850 | 0.98511 | 20079 ft | 386 kts | 154° |
| 2026-04-25 19:44 | 49.99430 | 1.00447 | 19829 ft | 396 kts | 153° |
| 2026-04-25 19:44 | 49.96973 | 1.02486 | 19598 ft | 405 kts | 152° |
| 2026-04-25 19:45 | 49.94488 | 1.04584 | 19350 ft | 407 kts | 152° |
| 2026-04-25 19:45 | 49.91989 | 1.06656 | 19114 ft | 407 kts | 153° |
| 2026-04-25 19:45 | 49.89485 | 1.08698 | 18877 ft | 406 kts | 153° |
| 2026-04-25 19:45 | 49.86990 | 1.10743 | 18641 ft | 406 kts | 153° |
| 2026-04-25 19:46 | 49.84504 | 1.12799 | 18392 ft | 404 kts | 153° |
| 2026-04-25 19:46 | 49.82060 | 1.14816 | 18147 ft | 402 kts | 153° |
| 2026-04-25 19:46 | 49.79560 | 1.16864 | 17747 ft | 403 kts | 153° |
| 2026-04-25 19:46 | 49.77093 | 1.18882 | 17232 ft | 398 kts | 153° |
| 2026-04-25 19:47 | 49.74704 | 1.20840 | 16716 ft | 392 kts | 153° |
| 2026-04-25 19:47 | 49.72298 | 1.22811 | 16197 ft | 389 kts | 153° |
| 2026-04-25 19:47 | 49.69921 | 1.24753 | 15688 ft | 384 kts | 153° |
| 2026-04-25 19:47 | 49.67558 | 1.26680 | 15175 ft | 383 kts | 153° |
| 2026-04-25 19:48 | 49.65217 | 1.28589 | 14673 ft | 378 kts | 153° |
| 2026-04-25 19:48 | 49.62895 | 1.30482 | 14173 ft | 377 kts | 152° |
| 2026-04-25 19:48 | 49.60586 | 1.32362 | 13652 ft | 373 kts | 153° |
| 2026-04-25 19:48 | 49.58299 | 1.34217 | 13153 ft | 370 kts | 153° |
| 2026-04-25 19:49 | 49.56025 | 1.36061 | 12666 ft | 370 kts | 153° |
| 2026-04-25 19:49 | 49.55258 | 1.36683 | 12500 ft | 369 kts | 153° |
| 2026-04-25 19:49 | 49.51522 | 1.39714 | 11695 ft | 363 kts | 153° |
| 2026-04-25 19:49 | 49.49298 | 1.41513 | 11217 ft | 360 kts | 153° |
| 2026-04-25 19:50 | 49.44901 | 1.45066 | 10287 ft | 355 kts | 152° |
| 2026-04-25 19:50 | 49.42723 | 1.46825 | 9802 ft | 353 kts | 152° |
| 2026-04-25 19:50 | 49.40668 | 1.48484 | 9358 ft | 311 kts | 152° |
| 2026-04-25 19:51 | 49.38763 | 1.50011 | 8968 ft | 302 kts | 152° |
| 2026-04-25 19:51 | 49.36955 | 1.51462 | 8585 ft | 286 kts | 152° |
| 2026-04-25 19:51 | 49.35216 | 1.52864 | 8211 ft | 281 kts | 152° |
| 2026-04-25 19:51 | 49.33503 | 1.54228 | 7851 ft | 282 kts | 152° |
| 2026-04-25 19:52 | 49.31729 | 1.55628 | 7479 ft | 282 kts | 152° |
| 2026-04-25 19:52 | 49.29985 | 1.56997 | 7202 ft | 279 kts | 152° |
| 2026-04-25 19:52 | 49.28280 | 1.58332 | 7201 ft | 276 kts | 152° |
| 2026-04-25 19:52 | 49.26550 | 1.59683 | 7204 ft | 280 kts | 153° |
| 2026-04-25 19:53 | 49.24818 | 1.61039 | 7161 ft | 282 kts | 152° |
| 2026-04-25 19:53 | 49.23045 | 1.62424 | 6855 ft | 288 kts | 152° |
| 2026-04-25 19:53 | 49.21274 | 1.63805 | 6487 ft | 283 kts | 153° |
| 2026-04-25 19:53 | 49.19537 | 1.65155 | 6105 ft | 278 kts | 153° |
| 2026-04-25 19:54 | 49.17823 | 1.66484 | 5720 ft | 275 kts | 152° |
| 2026-04-25 19:54 | 49.16122 | 1.67800 | 5352 ft | 273 kts | 153° |
| 2026-04-25 19:54 | 49.14458 | 1.69085 | 5110 ft | 271 kts | 153° |
| 2026-04-25 19:54 | 49.13891 | 1.69523 | 5027 ft | 272 kts | 152° |
| 2026-04-25 19:55 | 49.11049 | 1.71711 | 4597 ft | 272 kts | 153° |
| 2026-04-25 19:55 | 49.09359 | 1.73007 | 4338 ft | 272 kts | 153° |
| 2026-04-25 19:55 | 49.07674 | 1.74296 | 4086 ft | 271 kts | 153° |
| 2026-04-25 19:55 | 49.05995 | 1.75577 | 3836 ft | 269 kts | 152° |
| 2026-04-25 19:56 | 49.04330 | 1.76846 | 3592 ft | 267 kts | 153° |
| 2026-04-25 19:56 | 49.02673 | 1.78110 | 3344 ft | 267 kts | 152° |
| 2026-04-25 19:56 | 49.01012 | 1.79367 | 3085 ft | 265 kts | 153° |
| 2026-04-25 19:56 | 48.99374 | 1.80601 | 3002 ft | 259 kts | 152° |
| 2026-04-25 19:57 | 48.97762 | 1.81807 | 2999 ft | 261 kts | 152° |
| 2026-04-25 19:57 | 48.96175 | 1.83097 | 2983 ft | 253 kts | 143° |
| 2026-04-25 19:57 | 48.94981 | 1.84930 | 2989 ft | 236 kts | 129° |
| 2026-04-25 19:57 | 48.93985 | 1.86822 | 2989 ft | 223 kts | 126° |
| 2026-04-25 19:58 | 48.93041 | 1.88613 | 2989 ft | 218 kts | 127° |
| 2026-04-25 19:58 | 48.92078 | 1.90433 | 2990 ft | 218 kts | 126° |
| 2026-04-25 19:58 | 48.91134 | 1.92207 | 2989 ft | 219 kts | 126° |
| 2026-04-25 19:58 | 48.90170 | 1.94002 | 2989 ft | 219 kts | 127° |
| 2026-04-25 19:59 | 48.89212 | 1.95808 | 2988 ft | 220 kts | 127° |
| 2026-04-25 19:59 | 48.88257 | 1.97630 | 2988 ft | 221 kts | 126° |
| 2026-04-25 19:59 | 48.87324 | 1.99449 | 2975 ft | 215 kts | 123° |
| 2026-04-25 19:59 | 48.86739 | 2.01509 | 2987 ft | 215 kts | 105° |
| 2026-04-25 20:00 | 48.86434 | 2.03737 | 2972 ft | 215 kts | 91° |
| 2026-04-25 20:00 | 48.86462 | 2.04499 | 2980 ft | 213 kts | 82° |
| 2026-04-25 20:00 | 48.87243 | 2.08001 | 2984 ft | 211 kts | 66° |
| 2026-04-25 20:00 | 48.87811 | 2.10084 | 2987 ft | 214 kts | 67° |
| 2026-04-25 20:01 | 48.88932 | 2.14260 | 2990 ft | 211 kts | 66° |
| 2026-04-25 20:01 | 48.89481 | 2.16333 | 2990 ft | 213 kts | 68° |
| 2026-04-25 20:01 | 48.90045 | 2.18421 | 2990 ft | 214 kts | 66° |
| 2026-04-25 20:02 | 48.90607 | 2.20505 | 2993 ft | 213 kts | 66° |
| 2026-04-25 20:02 | 48.91163 | 2.22597 | 2889 ft | 214 kts | 66° |
| 2026-04-25 20:02 | 48.91725 | 2.24673 | 2624 ft | 207 kts | 66° |
| 2026-04-25 20:02 | 48.92255 | 2.26652 | 2354 ft | 199 kts | 66° |
| 2026-04-25 20:03 | 48.92766 | 2.28563 | 2094 ft | 192 kts | 66° |
| 2026-04-25 20:03 | 48.93247 | 2.30358 | 1847 ft | 168 kts | 65° |
| 2026-04-25 20:03 | 48.93639 | 2.31811 | 1640 ft | 130 kts | 65° |
| 2026-04-25 20:03 | 48.93949 | 2.32966 | 1469 ft | 110 kts | 64° |
| 2026-04-25 20:04 | 48.94231 | 2.34006 | 1342 ft | 104 kts | 65° |
| 2026-04-25 20:04 | 48.94498 | 2.35010 | 1201 ft | 101 kts | 64° |
| 2026-04-25 20:04 | 48.94761 | 2.35988 | 1072 ft | 99 kts | 64° |
| 2026-04-25 20:04 | 48.95022 | 2.36963 | 938 ft | 102 kts | 64° |
| 2026-04-25 20:05 | 48.95299 | 2.37987 | 816 ft | 105 kts | 64° |
| 2026-04-25 20:05 | 48.95569 | 2.38989 | 652 ft | 103 kts | 62° |
| 2026-04-25 20:05 | 48.95844 | 2.40031 | 506 ft | 107 kts | 65° |
| 2026-04-25 20:05 | 48.96111 | 2.41045 | 377 ft | 103 kts | 60° |
| 2026-04-25 20:06 | 48.96397 | 2.42083 | 228 ft | 107 kts | 63° |
| 2026-04-25 20:06 | 48.96672 | 2.43089 | 173 ft | 92 kts | 70° |
| 2026-04-25 20:06 | 48.96864 | 2.43810 | 179 ft | 55 kts | 67° |
| 2026-04-25 20:06 | 48.96956 | 2.44188 | 190 ft | 17 kts | 97° |
| 2026-04-25 20:07 | 48.96905 | 2.44343 | 190 ft | 19 kts | 133° |
| 2026-04-25 20:07 | 48.96780 | 2.44424 | 190 ft | 23 kts | 165° |
| 2026-04-25 20:07 | 48.96669 | 2.44478 | 178 ft | 21 kts | 161° |
| 2026-04-25 20:07 | 48.96479 | 2.44543 | 174 ft | 16 kts | 178° |
| 2026-04-25 20:08 | 48.96393 | 2.44549 | 168 ft | 8 kts | 187° |
| 2026-04-25 20:08 | 48.96346 | 2.44514 | 167 ft | 9 kts | 207° |
| 2026-04-25 20:08 | 48.96297 | 2.44479 | 167 ft | 14 kts | 206° |
| 2026-04-25 20:08 | 48.96156 | 2.44381 | 159 ft | 21 kts | 205° |
| 2026-04-25 20:09 | 48.96017 | 2.44282 | 157 ft | 18 kts | 206° |
| 2026-04-25 20:09 | 48.95900 | 2.44201 | 152 ft | 22 kts | 204° |
| 2026-04-25 20:09 | 48.95825 | 2.44147 | 151 ft | 15 kts | 206° |
| 2026-04-25 20:09 | 48.95750 | 2.44155 | 149 ft | 13 kts | 117° |
| 2026-04-25 20:10 | 48.95711 | 2.44266 | 149 ft | 8 kts | 160° |
| 2026-04-25 20:10 | 48.95663 | 2.44234 | 149 ft | 1 kts | 242° |
| 2026-04-25 20:10 | 48.95667 | 2.44230 | 149 ft | 1 kts | 354° |
| 2026-04-25 20:10 | 48.95671 | 2.44233 | 149 ft | 0 kts | 25° |